Time;durP1;ratioP1;P1;durP2;ratioP2;P2;SDS_P1;SDS_P2;PMS_P1;PMS_P2;Temp;Humidity;BMP_temperature;BMP_pressure;BME280_temperature;BME280_humidity;BME280_pressure;Samples;Min_cycle;Max_cycle;Signal;HPM_P1;HPM_P2
2023/04/21 00:02:04;;;;;;;25.30;17.83;;;;;;;7.73;93.77;101454.41;4977835;28;20022;-96
2023/04/21 00:04:31;;;;;;;26.42;18.00;;;;;;;7.71;94.13;101456.03;4979584;28;20033;-96
2023/04/21 00:06:57;;;;;;;28.58;18.30;;;;;;;7.68;94.46;101449.84;4978398;28;20121;-96
2023/04/21 00:09:22;;;;;;;28.55;17.98;;;;;;;7.59;94.66;101447.69;4978403;28;20484;-96
2023/04/21 00:11:48;;;;;;;28.20;17.55;;;;;;;7.55;95.83;101446.69;4978306;28;20132;-96
2023/04/21 00:14:13;;;;;;;25.65;17.50;;;;;;;7.52;95.13;101441.38;4979551;28;20443;-95
2023/04/21 00:16:38;;;;;;;27.23;18.20;;;;;;;7.49;96.01;101430.84;4978724;28;20049;-96
2023/04/21 00:19:05;;;;;;;27.58;17.90;;;;;;;7.51;95.63;101438.69;4976886;28;20406;-96
2023/04/21 00:21:34;;;;;;;28.42;17.92;;;;;;;7.48;96.82;101424.75;4977268;28;20121;-96
2023/04/21 00:23:59;;;;;;;28.03;18.67;;;;;;;7.55;96.32;101436.31;4978292;28;20034;-96
2023/04/21 00:26:25;;;;;;;28.80;18.23;;;;;;;7.51;96.51;101416.25;4977021;28;20824;-95
2023/04/21 00:28:50;;;;;;;28.98;18.50;;;;;;;7.51;96.50;101417.97;4995832;28;20231;-96
2023/04/21 00:31:15;;;;;;;30.55;19.20;;;;;;;7.46;96.87;101410.84;4976437;28;20120;-96
2023/04/21 00:33:41;;;;;;;29.95;19.65;;;;;;;7.44;96.89;101420.28;4976679;28;20412;-96
2023/04/21 00:36:06;;;;;;;29.50;18.98;;;;;;;7.41;97.47;101417.53;4978087;28;20031;-95
2023/04/21 00:38:31;;;;;;;29.80;18.20;;;;;;;7.39;97.68;101432.13;4978024;28;20026;-96
2023/04/21 00:40:57;;;;;;;30.85;18.95;;;;;;;7.37;97.71;101418.22;4977866;28;20037;-96
2023/04/21 00:43:24;;;;;;;29.00;18.58;;;;;;;7.38;98.07;101412.19;4976208;28;20026;-96
2023/04/21 00:45:49;;;;;;;31.35;19.30;;;;;;;7.36;98.51;101406.06;4979844;28;20084;-96
2023/04/21 00:48:15;;;;;;;28.60;18.90;;;;;;;7.33;98.01;101408.53;4977518;28;20043;-96
2023/04/21 00:50:41;;;;;;;29.10;18.70;;;;;;;7.32;98.67;101415.41;4979540;28;20110;-96
2023/04/21 00:53:06;;;;;;;28.92;17.80;;;;;;;7.31;99.03;101425.69;4977093;28;20049;-96
2023/04/21 00:55:32;;;;;;;32.30;18.83;;;;;;;7.30;98.73;101418.75;4977135;28;20065;-96
2023/04/21 00:57:57;;;;;;;29.33;18.10;;;;;;;7.31;99.04;101407.56;4985332;28;20029;-95
2023/04/21 01:00:23;;;;;;;28.40;18.83;;;;;;;7.31;98.79;101407.56;4977342;28;20028;-95
2023/04/21 01:02:48;;;;;;;29.25;18.58;;;;;;;7.29;99.01;101404.88;4996013;28;20042;-96
2023/04/21 01:05:15;;;;;;;28.95;18.67;;;;;;;7.28;99.06;101412.59;4976536;28;20025;-96
2023/04/21 01:07:41;;;;;;;28.73;18.92;;;;;;;7.26;99.54;101407.34;4977659;28;20026;-96
2023/04/21 01:10:07;;;;;;;30.00;19.15;;;;;;;7.25;99.65;101407.28;4978385;28;20029;-96
2023/04/21 01:12:34;;;;;;;29.60;18.00;;;;;;;7.28;99.89;101399.63;4974718;28;20095;-96
2023/04/21 01:14:59;;;;;;;27.55;17.70;;;;;;;7.28;99.55;101397.91;4977524;28;20400;-95
2023/04/21 01:17:25;;;;;;;30.17;18.67;;;;;;;7.29;99.62;101404.00;4976271;28;20034;-96
2023/04/21 01:19:55;;;;;;;29.10;17.88;;;;;;;7.31;100.00;101399.78;4977331;28;20144;-96
2023/04/21 01:22:20;;;;;;;;;;;;;;;7.36;97.09;101389.59;4978078;28;20395;-95
2023/04/21 01:24:47;;;;;;;30.35;17.40;;;;;;;7.38;99.10;101377.63;4975016;28;19918;-96
2023/04/21 01:27:18;;;;;;;28.08;17.77;;;;;;;7.40;99.89;101379.47;4991928;28;20448;-95
2023/04/21 01:29:48;;;;;;;28.60;17.58;;;;;;;7.44;99.60;101378.81;4977390;28;20026;-95
2023/04/21 01:32:16;;;;;;;28.83;17.42;;;;;;;7.45;99.35;101380.56;4977786;28;20046;-94
2023/04/21 01:34:42;;;;;;;28.97;17.57;;;;;;;7.44;99.15;101377.88;4978138;28;20026;-95
2023/04/21 01:37:14;;;;;;;28.02;16.75;;;;;;;7.39;99.41;101375.09;4981945;28;20025;-95
2023/04/21 01:39:41;;;;;;;28.10;16.95;;;;;;;7.39;99.42;101376.81;4996082;28;20095;-95
2023/04/21 01:42:07;;;;;;;27.42;16.85;;;;;;;7.35;99.46;101380.97;4977620;28;20022;-96
2023/04/21 01:44:33;;;;;;;28.08;16.88;;;;;;;7.33;99.69;101369.66;4998770;28;20033;-95
2023/04/21 01:46:58;;;;;;;28.83;16.85;;;;;;;7.34;99.78;101371.41;4981410;28;20029;-95
2023/04/21 01:49:23;;;;;;;27.60;16.83;;;;;;;7.37;100.00;101360.28;4980743;28;20079;-95
2023/04/21 01:51:49;;;;;;;28.48;17.02;;;;;;;7.38;99.60;101355.16;4981873;28;20079;-96
2023/04/21 01:54:14;;;;;;;31.63;17.95;;;;;;;7.35;99.36;101349.84;4981955;28;20026;-95
2023/04/21 01:56:40;;;;;;;28.33;17.13;;;;;;;7.35;99.31;101347.25;4981832;28;20026;-95
2023/04/21 01:59:05;;;;;;;29.55;17.08;;;;;;;7.32;99.57;101347.13;4981297;28;20025;-95
2023/04/21 02:01:30;;;;;;;29.17;17.30;;;;;;;7.31;99.85;101351.44;4980579;28;20137;-96
2023/04/21 02:03:55;;;;;;;27.88;16.98;;;;;;;7.32;100.00;101347.13;4979965;28;20359;-95
2023/04/21 02:06:21;;;;;;;28.55;16.65;;;;;;;7.32;99.88;101342.81;4998566;28;20696;-96
2023/04/21 02:08:46;;;;;;;27.38;16.75;;;;;;;7.35;100.00;101331.69;4998224;28;20022;-96
2023/04/21 02:11:11;;;;;;;27.02;16.70;;;;;;;7.36;100.00;101317.03;4980578;28;20036;-95
2023/04/21 02:13:37;;;;;;;28.23;16.27;;;;;;;7.32;99.95;101318.59;4998967;28;20091;-95
2023/04/21 02:16:02;;;;;;;28.50;17.15;;;;;;;7.34;99.98;101326.44;4999638;28;20084;-95
2023/04/21 02:18:28;;;;;;;26.48;16.38;;;;;;;7.34;100.00;101323.84;4998558;28;20679;-96
2023/04/21 02:20:54;;;;;;;27.48;16.85;;;;;;;7.36;100.00;101335.16;4981592;28;20460;-96
2023/04/21 02:23:20;;;;;;;28.85;16.25;;;;;;;7.36;99.76;101333.47;5000057;28;20030;-96
2023/04/21 02:25:45;;;;;;;27.80;16.45;;;;;;;7.36;99.62;101319.63;4980541;28;20018;-96
2023/04/21 02:28:10;;;;;;;28.85;17.17;;;;;;;7.38;99.94;101320.59;4981972;28;20522;-95
2023/04/21 02:30:36;;;;;;;27.88;17.05;;;;;;;7.38;99.36;101313.69;4985156;28;20121;-96
2023/04/21 02:33:01;;;;;;;30.38;17.95;;;;;;;7.38;99.77;101316.28;4982299;28;20499;-96
2023/04/21 02:35:26;;;;;;;30.65;17.60;;;;;;;7.37;99.45;101311.94;4981937;28;20122;-95
2023/04/21 02:37:52;;;;;;;26.58;17.33;;;;;;;7.36;99.83;101307.56;4982456;28;20037;-95
2023/04/21 02:40:17;;;;;;;27.20;16.83;;;;;;;7.35;99.96;101303.19;4982718;28;20025;-96
2023/04/21 02:42:42;;;;;;;28.52;16.98;;;;;;;7.36;99.49;101302.38;4982045;28;20022;-95
2023/04/21 02:45:08;;;;;;;29.63;17.88;;;;;;;7.37;99.96;101292.88;4983517;28;20511;-94
2023/04/21 02:47:34;;;;;;;29.80;17.60;;;;;;;7.38;100.00;101305.91;4981027;28;20030;-96
2023/04/21 02:49:59;;;;;;;31.50;18.30;;;;;;;7.34;100.00;101304.00;4981155;28;20029;-95
2023/04/21 02:52:25;;;;;;;31.67;18.33;;;;;;;7.34;100.00;101310.91;4981280;28;20475;-96
2023/04/21 02:54:50;;;;;;;31.98;18.27;;;;;;;7.30;100.00;101304.72;4981165;28;20022;-95
2023/04/21 02:57:16;;;;;;;31.25;18.48;;;;;;;7.27;100.00;101307.13;4982532;28;20049;-96
2023/04/21 02:59:41;;;;;;;31.77;18.20;;;;;;;7.27;100.00;101304.53;4982578;28;20117;-95
2023/04/21 03:02:06;;;;;;;31.42;18.13;;;;;;;7.24;100.00;101296.63;4982942;28;20026;-96
2023/04/21 03:04:32;;;;;;;31.88;18.73;;;;;;;7.25;100.00;101294.09;4981962;28;20033;-96
2023/04/21 03:06:58;;;;;;;32.38;19.73;;;;;;;7.25;100.00;101288.06;4982718;28;20080;-96
2023/04/21 03:09:23;;;;;;;30.80;18.02;;;;;;;7.25;100.00;101294.09;4981754;28;20026;-96
2023/04/21 03:11:48;;;;;;;31.77;19.20;;;;;;;7.26;100.00;101300.19;4982876;28;20022;-96
2023/04/21 03:14:13;;;;;;;32.83;19.02;;;;;;;7.26;100.00;101297.59;4983401;28;20100;-96
2023/04/21 03:16:39;;;;;;;33.58;19.55;;;;;;;7.28;100.00;101293.38;4981716;28;20033;-96
2023/04/21 03:19:04;;;;;;;30.42;18.50;;;;;;;7.24;100.00;101296.63;4981309;28;20029;-96
2023/04/21 03:21:30;;;;;;;35.30;19.23;;;;;;;7.23;99.95;101295.75;4981883;28;20475;-96
2023/04/21 03:23:56;;;;;;;32.08;18.38;;;;;;;7.21;99.70;101304.28;4981779;28;20499;-96
2023/04/21 03:26:21;;;;;;;32.20;19.35;;;;;;;7.14;100.00;101304.00;4982572;28;20026;-95
2023/04/21 03:28:47;;;;;;;33.17;18.83;;;;;;;7.10;99.50;101301.22;4983533;28;20110;-96
2023/04/21 03:31:12;;;;;;;31.80;18.42;;;;;;;7.08;99.50;101293.38;4981340;28;20046;-96
2023/04/21 03:33:37;;;;;;;34.00;19.35;;;;;;;7.08;99.16;101295.06;4982755;28;20101;-96
2023/04/21 03:36:03;;;;;;;32.58;18.55;;;;;;;7.05;98.92;101295.81;4981917;28;20045;-96
2023/04/21 03:38:28;;;;;;;34.83;19.75;;;;;;;7.05;99.70;101295.81;4980282;28;20395;-95
2023/04/21 03:40:54;;;;;;;33.00;18.63;;;;;;;7.08;99.11;101301.16;4981901;28;20026;-96
2023/04/21 03:43:19;;;;;;;35.15;18.92;;;;;;;7.07;98.99;101290.72;4979337;28;20054;-96
2023/04/21 03:45:45;;;;;;;32.78;18.50;;;;;;;7.07;98.93;101296.78;4980673;28;20211;-96
2023/04/21 03:48:10;;;;;;;34.42;19.02;;;;;;;7.03;98.60;101294.88;4981336;28;20091;-96
2023/04/21 03:50:37;;;;;;;31.67;17.40;;;;;;;7.02;98.68;101289.63;4981266;28;20045;-96
2023/04/21 03:53:02;;;;;;;31.73;18.88;;;;;;;7.02;98.78;101287.91;4989882;28;20101;-96
2023/04/21 03:55:28;;;;;;;34.53;19.58;;;;;;;6.97;98.95;101292.00;4980446;28;20117;-96
2023/04/21 03:57:53;;;;;;;33.67;19.33;;;;;;;6.96;99.08;101300.59;4980407;28;20055;-96
2023/04/21 04:00:19;;;;;;;35.22;19.55;;;;;;;6.91;99.14;101297.78;4981252;28;20113;-95
2023/04/21 04:02:45;;;;;;;35.78;20.38;;;;;;;6.93;99.58;101295.25;4981229;28;20068;-96
2023/04/21 04:05:10;;;;;;;33.55;19.05;;;;;;;6.94;99.27;101291.88;4981791;28;20459;-96
2023/04/21 04:07:36;;;;;;;33.50;19.50;;;;;;;6.94;99.50;101294.47;4979265;28;20577;-96
2023/04/21 04:10:01;;;;;;;34.92;19.80;;;;;;;6.93;99.52;101295.25;4982109;28;20026;-96
2023/04/21 04:12:26;;;;;;;36.58;20.40;;;;;;;6.93;99.64;101290.97;4979217;28;20029;-96
2023/04/21 04:14:52;;;;;;;36.63;20.10;;;;;;;6.89;99.89;101289.03;4980443;28;20030;-96
2023/04/21 04:17:17;;;;;;;39.47;21.15;;;;;;;6.89;100.00;101286.44;4981724;28;20024;-96
2023/04/21 04:19:42;;;;;;;38.13;20.23;;;;;;;6.87;100.00;101293.28;4979362;28;20110;-95
2023/04/21 04:22:08;;;;;;;34.95;20.10;;;;;;;6.90;100.00;101285.66;4979798;28;20049;-96
2023/04/21 04:24:34;;;;;;;38.22;20.58;;;;;;;6.93;100.00;101290.09;4977550;28;20018;-96
2023/04/21 04:27:01;;;;;;;38.85;21.25;;;;;;;6.95;99.87;101285.84;4981997;28;20113;-95
2023/04/21 04:29:26;;;;;;;36.00;20.75;;;;;;;6.97;99.83;101297.19;4980745;28;20033;-96
2023/04/21 04:31:52;;;;;;;37.28;19.90;;;;;;;6.98;99.52;101293.78;4977391;28;20050;-96
2023/04/21 04:34:17;;;;;;;35.50;20.63;;;;;;;7.03;99.54;101291.41;4977938;28;20109;-96
2023/04/21 04:36:44;;;;;;;38.20;20.65;;;;;;;7.01;99.18;101291.31;4978660;28;20026;-96
2023/04/21 04:39:09;;;;;;;38.10;21.15;;;;;;;7.03;99.44;101288.81;4976094;28;20070;-96
2023/04/21 04:41:35;;;;;;;40.05;21.58;;;;;;;7.03;100.00;101289.69;4975655;28;20511;-96
2023/04/21 04:44:03;;;;;;;41.33;21.67;;;;;;;7.04;100.00;101298.31;4978059;28;20049;-96
2023/04/21 04:46:32;;;;;;;43.03;22.73;;;;;;;7.02;100.00;101294.78;4976493;28;20117;-96
2023/04/21 04:48:57;;;;;;;41.93;22.43;;;;;;;7.03;100.00;101301.75;4974983;28;20034;-96
2023/04/21 04:51:23;;;;;;;42.50;22.60;;;;;;;7.02;100.00;101297.38;4975467;28;20026;-95
2023/04/21 04:53:48;;;;;;;44.20;23.25;;;;;;;7.04;100.00;101304.41;4976069;28;20023;-96
2023/04/21 04:56:13;;;;;;;41.10;21.90;;;;;;;7.01;100.00;101299.09;4978331;28;20137;-96
2023/04/21 04:58:39;;;;;;;38.10;22.15;;;;;;;7.03;100.00;101296.56;4978580;28;20070;-96
2023/04/21 05:01:14;;;;;;;40.65;22.67;;;;;;;7.03;100.00;101302.63;4977119;28;20022;-96
2023/04/21 05:03:40;;;;;;;39.00;22.02;;;;;;;7.00;100.00;101301.63;4976348;28;20092;-95
2023/04/21 05:06:05;;;;;;;42.83;22.58;;;;;;;6.99;100.00;101298.13;4974347;28;20038;-96
2023/04/21 05:08:31;;;;;;;44.35;22.55;;;;;;;6.98;100.00;101304.16;4978568;28;20034;-96
2023/04/21 05:10:56;;;;;;;43.58;23.73;;;;;;;6.99;100.00;101292.94;4984491;28;20018;-96
2023/04/21 05:13:21;;;;;;;42.72;23.27;;;;;;;7.01;100.00;101301.69;4981257;28;20014;-96
2023/04/21 05:15:46;;;;;;;46.42;24.38;;;;;;;7.01;100.00;101296.50;4982402;28;20030;-96
2023/04/21 05:18:12;;;;;;;47.75;24.27;;;;;;;7.01;100.00;101299.09;4983172;28;20042;-96
2023/04/21 05:20:40;;;;;;;44.70;24.08;;;;;;;7.00;100.00;101305.09;4983924;28;20050;-96
2023/04/21 05:23:06;;;;;;;47.05;25.52;;;;;;;7.00;100.00;101307.69;4982843;28;20129;-96
2023/04/21 05:25:31;;;;;;;50.75;25.65;;;;;;;6.97;100.00;101308.41;4981966;28;20035;-94
2023/04/21 05:27:56;;;;;;;47.38;24.30;;;;;;;6.97;100.00;101310.13;4984646;28;20046;-95
2023/04/21 05:30:22;;;;;;;51.38;26.10;;;;;;;6.96;100.00;101311.81;4983881;28;20113;-95
2023/04/21 05:32:47;;;;;;;49.03;25.85;;;;;;;6.97;100.00;101316.19;4981739;28;20042;-95
2023/04/21 05:35:12;;;;;;;48.17;24.88;;;;;;;7.01;100.00;101325.00;4983514;28;20084;-95
2023/04/21 05:37:38;;;;;;;47.05;24.65;;;;;;;7.05;100.00;101324.31;4984463;28;20029;-96
2023/04/21 05:40:03;;;;;;;54.72;26.23;;;;;;;7.11;100.00;101328.88;4983684;28;20031;-95
2023/04/21 05:42:29;;;;;;;47.88;26.08;;;;;;;7.15;100.00;101330.81;4982387;28;20034;-96
2023/04/21 05:44:54;;;;;;;48.33;26.00;;;;;;;7.19;100.00;101326.66;4983310;28;20022;-96
2023/04/21 05:47:19;;;;;;;53.53;25.65;;;;;;;7.19;100.00;101322.34;4983133;28;20133;-96
2023/04/21 05:49:48;;;;;;;52.83;26.55;;;;;;;7.20;100.00;101321.53;4983106;28;20105;-95
2023/04/21 05:52:15;;;;;;;49.00;25.55;;;;;;;7.22;100.00;101327.66;4982620;28;20022;-95
2023/04/21 05:54:41;;;;;;;50.75;25.65;;;;;;;7.24;100.00;101332.91;4984425;28;20488;-95
2023/04/21 05:57:07;;;;;;;47.42;25.42;;;;;;;7.25;100.00;101334.69;4983214;28;20125;-96
2023/04/21 05:59:32;;;;;;;54.53;26.58;;;;;;;7.25;100.00;101329.53;4984954;28;20518;-96
2023/04/21 06:01:58;;;;;;;51.33;24.92;;;;;;;7.27;100.00;101335.66;4982212;28;20093;-96
2023/04/21 06:04:23;;;;;;;47.97;25.85;;;;;;;7.27;100.00;101328.78;4981497;28;20031;-96
2023/04/21 06:06:48;;;;;;;50.25;25.90;;;;;;;7.26;100.00;101327.00;4983577;28;20049;-96
2023/04/21 06:09:14;;;;;;;52.10;25.67;;;;;;;7.27;100.00;101326.19;4983590;28;20613;-96
2023/04/21 06:11:40;;;;;;;51.58;26.75;;;;;;;7.27;100.00;101322.69;4983983;28;20026;-95
2023/04/21 06:14:05;;;;;;;53.05;26.30;;;;;;;7.29;100.00;101324.53;4982130;28;20030;-96
2023/04/21 06:16:32;;;;;;;52.78;27.55;;;;;;;7.34;100.00;101322.13;4983560;28;20061;-96
2023/04/21 06:18:59;;;;;;;52.58;27.75;;;;;;;7.36;100.00;101325.72;4981111;28;20034;-96
2023/04/21 06:21:24;;;;;;;55.63;27.65;;;;;;;7.37;100.00;101319.72;4978426;28;20076;-96
2023/04/21 06:23:49;;;;;;;54.25;27.50;;;;;;;7.41;100.00;101321.59;4982216;28;20034;-96
2023/04/21 06:26:15;;;;;;;55.05;27.38;;;;;;;7.44;100.00;101316.56;4980485;28;20214;-96
2023/04/21 06:28:40;;;;;;;54.65;27.77;;;;;;;7.51;100.00;101312.53;4979702;28;20111;-96
2023/04/21 06:31:05;;;;;;;53.75;27.55;;;;;;;7.59;100.00;101324.13;4979730;28;20497;-96
2023/04/21 06:33:31;;;;;;;54.75;28.42;;;;;;;7.68;100.00;101320.16;4981217;28;20049;-95
2023/04/21 06:35:56;;;;;;;54.75;28.73;;;;;;;7.73;100.00;101318.63;4978706;28;20029;-96
2023/04/21 06:38:22;;;;;;;56.75;28.25;;;;;;;7.79;100.00;101325.00;4980159;28;20134;-95
2023/04/21 06:40:47;;;;;;;53.05;26.98;;;;;;;7.82;100.00;101330.31;4978738;28;20034;-95
2023/04/21 06:43:13;;;;;;;56.03;28.60;;;;;;;7.88;100.00;101329.69;4977982;28;20038;-96
2023/04/21 06:45:38;;;;;;;55.80;28.52;;;;;;;7.92;100.00;101335.88;4974913;28;20027;-96
2023/04/21 06:48:04;;;;;;;53.97;28.25;;;;;;;7.96;100.00;101332.59;4977180;28;20026;-96
2023/04/21 06:50:29;;;;;;;58.72;28.67;;;;;;;8.01;100.00;101333.69;4980260;28;20030;-96
2023/04/21 06:52:55;;;;;;;60.88;30.27;;;;;;;8.10;100.00;101315.88;4977714;28;20022;-95
2023/04/21 06:55:20;;;;;;;59.70;30.05;;;;;;;8.18;100.00;101326.56;4979738;28;20038;-96
2023/04/21 06:57:45;;;;;;;56.85;29.40;;;;;;;8.28;100.00;101330.44;4978567;28;20023;-95
2023/04/21 07:00:11;;;;;;;56.78;29.80;;;;;;;8.38;100.00;101337.75;4978785;28;20026;-96
2023/04/21 07:02:36;;;;;;;55.90;28.95;;;;;;;8.44;100.00;101335.44;4981830;28;20061;-95
2023/04/21 07:05:02;;;;;;;57.08;28.95;;;;;;;8.50;100.00;101334.81;4981043;28;20093;-96
2023/04/21 07:07:28;;;;;;;59.13;29.38;;;;;;;8.54;100.00;101323.72;4979799;28;20101;-95
2023/04/21 07:09:53;;;;;;;56.65;29.60;;;;;;;8.60;100.00;101323.94;4979006;28;20088;-96
2023/04/21 07:12:18;;;;;;;57.28;29.60;;;;;;;8.64;100.00;101319.78;4980187;28;20664;-95
2023/04/21 07:14:43;;;;;;;55.42;29.60;;;;;;;8.74;100.00;101328.81;4977636;28;20510;-95
2023/04/21 07:17:09;;;;;;;54.00;28.55;;;;;;;8.81;100.00;101329.09;4977906;28;20556;-95
2023/04/21 07:19:35;;;;;;;60.20;30.10;;;;;;;8.92;100.00;101328.63;4978223;28;20033;-94
2023/04/21 07:22:01;;;;;;;55.78;29.90;;;;;;;9.00;100.00;101325.50;4978866;28;20062;-95
2023/04/21 07:24:26;;;;;;;52.15;28.42;;;;;;;9.11;100.00;101320.72;4979273;28;20031;-95
2023/04/21 07:26:51;;;;;;;53.42;28.77;;;;;;;9.21;99.76;101325.41;4979049;28;20504;-96
2023/04/21 07:29:17;;;;;;;54.08;29.38;;;;;;;9.25;98.08;101322.94;4978826;28;20022;-96
2023/04/21 07:31:42;;;;;;;53.72;29.10;;;;;;;9.32;98.07;101312.81;4977419;28;20520;-96
2023/04/21 07:34:10;;;;;;;55.45;28.10;;;;;;;9.42;97.87;101316.63;4977533;28;21138;-96
2023/04/21 07:36:36;;;;;;;55.45;28.65;;;;;;;9.55;97.63;101313.63;4975414;28;20160;-96
2023/04/21 07:39:02;;;;;;;58.47;29.35;;;;;;;9.67;99.03;101312.28;4978715;28;20027;-96
2023/04/21 07:41:28;;;;;;;55.88;28.90;;;;;;;9.73;96.94;101312.50;4977129;28;20072;-96
2023/04/21 07:43:54;;;;;;;54.58;29.50;;;;;;;9.81;96.51;101313.66;4978510;28;20053;-96
2023/04/21 07:46:20;;;;;;;54.88;28.40;;;;;;;9.91;94.48;101312.25;4979983;28;20090;-95
2023/04/21 07:48:45;;;;;;;54.05;28.63;;;;;;;10.00;95.73;101304.75;4977676;28;20378;-95
2023/04/21 07:51:10;;;;;;;51.33;28.30;;;;;;;10.06;93.76;101309.28;4976884;28;20687;-96
2023/04/21 07:53:36;;;;;;;56.33;28.58;;;;;;;10.20;93.20;101313.22;4979556;28;20080;-96
2023/04/21 07:56:02;;;;;;;48.17;26.17;;;;;;;10.24;90.23;101315.09;4977641;28;20058;-96
2023/04/21 07:58:27;;;;;;;48.25;26.70;;;;;;;10.30;89.07;101318.72;4978710;28;20022;-96
2023/04/21 08:00:52;;;;;;;46.95;25.27;;;;;;;10.35;87.92;101311.97;4975139;28;20116;-96
2023/04/21 08:03:18;;;;;;;49.55;26.02;;;;;;;10.47;92.59;101307.16;4975341;28;20031;-96
2023/04/21 08:05:43;;;;;;;47.25;25.60;;;;;;;10.61;89.68;101312.78;4979676;28;20033;-96
2023/04/21 08:08:08;;;;;;;45.50;24.17;;;;;;;10.71;91.38;101304.41;4978644;28;20030;-96
2023/04/21 08:10:34;;;;;;;43.38;22.77;;;;;;;10.75;89.62;101308.00;4978400;28;20042;-96
2023/04/21 08:12:59;;;;;;;41.75;22.40;;;;;;;10.77;88.39;101304.59;4976730;28;20033;-96
2023/04/21 08:15:24;;;;;;;43.63;23.67;;;;;;;10.86;88.87;101306.63;4974324;28;20114;-96
2023/04/21 08:17:50;;;;;;;43.78;23.38;;;;;;;10.94;88.70;101302.50;4976531;28;20027;-96
2023/04/21 08:20:15;;;;;;;44.42;24.25;;;;;;;11.01;85.74;101300.06;4974130;28;20123;-96
2023/04/21 08:22:41;;;;;;;39.78;22.10;;;;;;;11.08;86.18;101292.47;4973836;28;20832;-95
2023/04/21 08:25:06;;;;;;;41.60;22.38;;;;;;;11.20;85.02;101291.94;4958900;28;20038;-95
2023/04/21 08:27:32;;;;;;;40.90;22.25;;;;;;;11.38;85.45;101293.28;4988872;28;20460;-95
2023/04/21 08:29:58;;;;;;;43.42;23.13;;;;;;;11.53;86.21;101291.09;4974811;28;20480;-95
2023/04/21 08:32:25;;;;;;;45.88;22.30;;;;;;;11.68;82.88;101294.97;4971190;28;20053;-96
2023/04/21 08:34:52;;;;;;;42.58;22.90;;;;;;;11.72;81.40;101296.81;4975391;28;20109;-96
2023/04/21 08:37:18;;;;;;;42.28;23.15;;;;;;;11.84;84.27;101291.91;4974699;28;20114;-95
2023/04/21 08:39:43;;;;;;;42.05;22.33;;;;;;;12.00;81.93;101291.47;4974527;28;20374;-95
2023/04/21 08:42:09;;;;;;;40.25;21.83;;;;;;;12.17;81.43;101297.09;4974808;28;20052;-96
2023/04/21 08:44:34;;;;;;;44.55;23.48;;;;;;;12.17;78.95;101293.63;4974259;28;20488;-95
2023/04/21 08:47:02;;;;;;;44.63;24.17;;;;;;;12.12;83.31;101295.22;4975703;28;20030;-96
2023/04/21 08:49:29;;;;;;;43.67;23.15;;;;;;;12.26;82.60;101291.22;4973539;28;20030;-94
2023/04/21 08:51:54;;;;;;;42.03;22.13;;;;;;;12.43;81.45;101285.53;4973089;28;20392;-95
2023/04/21 08:54:20;;;;;;;42.17;22.80;;;;;;;12.54;82.60;101281.41;4975110;28;20038;-95
2023/04/21 08:56:48;;;;;;;42.45;23.33;;;;;;;12.56;80.37;101284.94;4973937;28;20034;-95
2023/04/21 08:59:13;;;;;;;42.15;22.42;;;;;;;12.63;81.11;101281.63;4974269;28;20192;-95
2023/04/21 09:02:08;;;;;;;40.42;21.95;;;;;;;12.75;81.36;101286.22;4974111;28;20374;-95
2023/04/21 09:04:37;;;;;;;44.60;22.27;;;;;;;12.82;80.03;101287.25;4974084;28;20061;-96
2023/04/21 09:07:02;;;;;;;40.13;21.85;;;;;;;12.95;77.37;101278.81;4972042;28;20030;-95
2023/04/21 09:09:28;;;;;;;38.33;21.52;;;;;;;12.96;75.49;101283.19;4974862;28;20030;-96
2023/04/21 09:11:56;;;;;;;44.17;23.10;;;;;;;12.96;77.54;101270.13;4972505;28;20038;-96
2023/04/21 09:14:21;;;;;;;42.03;22.73;;;;;;;13.03;78.81;101276.34;4973755;28;20027;-96
2023/04/21 09:16:59;;;;;;;39.05;22.58;;;;;;;13.17;76.35;101272.28;4974488;28;20030;-95
2023/04/21 09:19:26;;;;;;;38.90;22.52;;;;;;;13.36;76.08;101270.06;4973988;28;20085;-96
2023/04/21 09:21:52;;;;;;;40.28;21.50;;;;;;;13.44;76.62;101259.72;4973855;28;20030;-96
2023/04/21 09:24:18;;;;;;;37.42;21.05;;;;;;;13.51;73.76;101259.88;4975507;28;20448;-96
2023/04/21 09:26:43;;;;;;;33.80;19.67;;;;;;;13.63;75.66;101261.81;4973410;28;20030;-95
2023/04/21 09:29:08;;;;;;;34.80;19.50;;;;;;;13.82;76.40;101262.16;4974563;28;20038;-96
2023/04/21 09:31:34;;;;;;;33.00;18.70;;;;;;;13.96;71.62;101265.88;4978289;28;20174;-96
2023/04/21 09:34:00;;;;;;;35.63;20.35;;;;;;;14.08;77.20;101260.81;4979313;28;20572;-96
2023/04/21 09:36:30;;;;;;;33.90;19.25;;;;;;;14.14;72.91;101262.66;4977447;28;20044;-96
2023/04/21 09:38:57;;;;;;;33.88;19.00;;;;;;;14.22;74.69;101274.16;4975171;28;20076;-96
2023/04/21 09:41:24;;;;;;;36.47;21.05;;;;;;;14.22;70.84;101257.53;4977666;28;20563;-96
2023/04/21 09:43:49;;;;;;;36.47;19.05;;;;;;;14.15;72.42;101258.28;4978821;28;20598;-96
2023/04/21 09:46:16;;;;;;;35.78;19.52;;;;;;;14.22;71.51;101263.69;4979141;28;20026;-96
2023/04/21 09:48:44;;;;;;;36.08;19.92;;;;;;;14.29;72.73;101269.00;4979481;28;20485;-96
2023/04/21 09:51:14;;;;;;;35.55;19.98;;;;;;;14.18;72.53;101263.56;4978982;28;20129;-96
2023/04/21 09:53:41;;;;;;;37.63;20.50;;;;;;;14.13;75.24;101260.91;4980677;28;20389;-96
2023/04/21 09:56:12;;;;;;;35.58;21.17;;;;;;;14.11;74.94;101252.13;4982266;28;20026;-96
2023/04/21 09:58:56;;;;;;;45.13;23.90;;;;;;;14.25;77.02;101254.94;4983773;28;20030;-96
2023/04/21 10:01:24;;;;;;;41.53;23.75;;;;;;;14.37;76.96;101252.53;4986674;28;20040;-96
2023/04/21 10:03:50;;;;;;;37.65;21.48;;;;;;;14.52;71.82;101254.47;4999301;28;20037;-96
2023/04/21 10:06:15;;;;;;;37.88;21.15;;;;;;;14.72;72.03;101249.53;4986169;28;20306;-96
2023/04/21 10:08:43;;;;;;;39.42;22.00;;;;;;;14.85;70.23;101240.09;4987350;28;20041;-96
2023/04/21 10:11:09;;;;;;;39.30;21.65;;;;;;;15.00;72.61;101244.63;4984731;28;20030;-96
2023/04/21 10:13:36;;;;;;;34.40;20.70;;;;;;;15.06;69.00;101242.09;4985420;28;20732;-96
2023/04/21 10:16:10;;;;;;;33.50;20.33;;;;;;;15.15;70.26;101249.19;4984500;28;20026;-96
2023/04/21 10:18:37;;;;;;;34.45;20.13;;;;;;;15.24;67.23;101241.41;4987245;28;20026;-96
2023/04/21 10:21:05;;;;;;;33.25;19.55;;;;;;;15.36;68.28;101234.53;5003131;28;20057;-96
2023/04/21 10:23:44;;;;;;;39.17;21.45;;;;;;;15.52;68.92;101230.31;4991920;28;20060;-96
2023/04/21 10:26:17;;;;;;;33.78;20.00;;;;;;;15.77;72.24;101234.91;4985826;28;20026;-96
2023/04/21 10:28:44;;;;;;;32.58;19.30;;;;;;;15.80;63.11;101229.72;4989686;28;20045;-96
2023/04/21 10:31:17;;;;;;;31.77;19.25;;;;;;;15.70;66.36;101227.84;4990794;28;20404;-96
2023/04/21 10:34:03;;;;;;;31.52;19.60;;;;;;;15.64;68.41;101225.16;4990846;28;20065;-96
2023/04/21 10:36:28;;;;;;;31.08;19.50;;;;;;;15.40;64.74;101215.31;4986676;28;20030;-96
2023/04/21 10:38:56;;;;;;;30.85;18.60;;;;;;;15.27;63.51;101217.81;4987967;28;20482;-96
2023/04/21 10:41:29;;;;;;;29.73;18.65;;;;;;;15.32;69.03;101206.47;4992562;28;20030;-96
2023/04/21 10:44:11;;;;;;;30.77;19.00;;;;;;;15.60;70.25;101202.38;4993562;28;20033;-96
2023/04/21 10:46:46;;;;;;;29.92;17.42;;;;;;;15.76;67.18;101195.50;4987547;28;20032;-96
2023/04/21 10:49:25;;;;;;;32.08;18.80;;;;;;;15.81;68.58;101206.94;5001211;28;20053;-96
2023/04/21 10:52:02;;;;;;;33.25;19.33;;;;;;;15.63;68.20;101195.38;5007064;28;20018;-96
2023/04/21 10:54:46;;;;;;;29.60;18.42;;;;;;;15.42;66.83;101203.06;5006631;28;20037;-96
2023/04/21 10:57:23;;;;;;;31.80;18.80;;;;;;;15.41;68.21;101196.03;5008488;28;20085;-96
2023/04/21 10:59:50;;;;;;;30.08;18.00;;;;;;;15.41;67.75;101186.44;4992217;28;20041;-96
2023/04/21 11:02:18;;;;;;;28.65;17.27;;;;;;;15.55;69.05;101177.81;4989542;28;20058;-96
2023/04/21 11:04:49;;;;;;;29.77;18.30;;;;;;;15.53;67.17;101184.81;5003576;28;20034;-96
2023/04/21 11:07:15;;;;;;;30.85;18.40;;;;;;;15.53;65.84;101192.69;5004151;28;20476;-96
2023/04/21 11:09:42;;;;;;;27.05;17.27;;;;;;;15.27;64.59;101181.06;5002255;28;20014;-96